»·PEaware :: DAL2294 KATL-KIAH

DAL2294 :: KATL-KIAH

FLIGHT INFORMATION

Flight Status: Arrived
Operator:
Delta Air Lines
More flights by this operator :: More flights under this callsign
Pilot: James B. (24167)
Aircraft: AIRBUS A320
(A320)
More flights by this aircraft type
Origin: KATL Hartsfield-Jackson Atlanta
United States
Destination: KIAH G Bush Intercontinental/Houst
United States
More flights between these airports :: More routes between these airports
Route: KAJIN2 STNGA WINAP Q40 AEX OHIIO4
File this flight plan on PilotEdge
Remarks: RMK / SIMBRIEF
Altitude:
(Current/Filed)
38,000ft
Speed:
(Current/Filed)
447kts
Departed: 18-Oct-19 06:43 PM
Arrived: 18-Oct-19 08:22 PM
Distance/Time
Traveled:
598nm/1:38
Distance/Time
To Go:
Arrived

Flight Plot

Page will automatically refresh every two minutes.

Flight plan parsing failed; only flown route is shown


Map Options




Map Legend


Flown Route
Filed Route
Departure Airport
Arrival Airport
Navaid (VOR, NDB)
Fix

Horizontal Profiles

Position Reports

Time Latitude Longitude Heading Altitude Ground
Speed
18-Oct-19 17:42 33.639578 -84.436393 90 1017ft 0kts
18-Oct-19 17:43 33.639578 -84.436393 90 1017ft 0kts
18-Oct-19 17:44 33.639578 -84.436393 90 1017ft 0kts
18-Oct-19 17:45 33.639578 -84.436393 90 1017ft 0kts
18-Oct-19 17:46 33.639578 -84.436393 90 1017ft 0kts
18-Oct-19 17:47 33.639578 -84.436393 90 1017ft 0kts
18-Oct-19 17:48 33.639578 -84.436393 90 1017ft 0kts
18-Oct-19 17:49 33.639578 -84.436393 90 1017ft 0kts
18-Oct-19 17:50 33.639578 -84.436393 90 1017ft 0kts
18-Oct-19 17:51 33.639578 -84.436393 90 1017ft 0kts
18-Oct-19 17:52 33.639578 -84.436393 90 1017ft 0kts
18-Oct-19 17:53 33.639578 -84.436393 90 1017ft 0kts
18-Oct-19 17:54 33.639578 -84.436393 90 1017ft 0kts
18-Oct-19 17:55 33.639578 -84.436393 90 1017ft 0kts
18-Oct-19 17:56 33.639578 -84.436393 90 1017ft 0kts
18-Oct-19 17:57 33.639578 -84.436393 90 1017ft 0kts
18-Oct-19 17:58 33.639578 -84.436393 90 1017ft 0kts
18-Oct-19 17:59 33.639578 -84.436393 90 1017ft 0kts
18-Oct-19 18:00 33.639578 -84.436393 90 1017ft 0kts
18-Oct-19 18:01 33.639578 -84.436393 90 1017ft 0kts
18-Oct-19 18:02 33.639578 -84.436393 90 1017ft 0kts
18-Oct-19 18:03 33.639578 -84.436393 90 1017ft 0kts
18-Oct-19 18:04 33.639578 -84.436393 90 1017ft 0kts
18-Oct-19 18:05 33.639578 -84.436393 90 1017ft 0kts
18-Oct-19 18:06 33.639578 -84.436393 90 1017ft 0kts
18-Oct-19 18:07 33.639578 -84.436393 90 1017ft 0kts
18-Oct-19 18:08 33.639578 -84.436393 90 1017ft 0kts
18-Oct-19 18:09 33.639578 -84.436393 90 1017ft 0kts
18-Oct-19 18:10 33.639578 -84.436393 90 1017ft 0kts
18-Oct-19 18:11 33.639578 -84.436393 90 1017ft 0kts
18-Oct-19 18:12 33.639578 -84.436393 90 1017ft 0kts
18-Oct-19 18:13 33.639578 -84.436393 90 1017ft 0kts
18-Oct-19 18:14 33.639578 -84.436393 90 1017ft 0kts
18-Oct-19 18:15 33.639578 -84.436393 90 1017ft 0kts
18-Oct-19 18:16 33.639578 -84.436393 90 1017ft 0kts
18-Oct-19 18:17 33.639578 -84.436393 90 1017ft 0kts
18-Oct-19 18:18 33.639578 -84.436393 90 1017ft 0kts
18-Oct-19 18:19 33.639578 -84.436393 90 1017ft 0kts
18-Oct-19 18:20 33.639578 -84.436393 90 1017ft 0kts
18-Oct-19 18:21 33.639578 -84.436393 90 1017ft 0kts
18-Oct-19 18:22 33.639578 -84.436393 90 1017ft 0kts
18-Oct-19 18:23 33.639578 -84.436393 90 1017ft 0kts
18-Oct-19 18:24 33.639578 -84.436393 90 1017ft 0kts
18-Oct-19 18:25 33.639578 -84.436393 90 1017ft 0kts
18-Oct-19 18:26 33.639578 -84.436393 90 1017ft 0kts
18-Oct-19 18:27 33.639578 -84.436393 90 1017ft 0kts
18-Oct-19 18:28 33.639578 -84.436393 90 1017ft 0kts
18-Oct-19 18:29 33.639578 -84.436393 90 1017ft 0kts
18-Oct-19 18:30 33.639578 -84.436393 90 1017ft 0kts
18-Oct-19 18:31 33.639578 -84.436393 90 1017ft 0kts
18-Oct-19 18:32 33.639578 -84.436393 90 1017ft 0kts
18-Oct-19 18:33 33.639578 -84.436393 90 1017ft 0kts
18-Oct-19 18:34 33.639578 -84.436393 90 1017ft 0kts
18-Oct-19 18:35 33.639577 -84.436756 89 1017ft 2kts
18-Oct-19 18:36 33.639403 -84.437252 49 1017ft 0kts
18-Oct-19 18:37 33.639404 -84.437251 49 1017ft 0kts
18-Oct-19 18:38 33.640190 -84.437212 359 1017ft 4kts
18-Oct-19 18:39 33.642437 -84.437210 357 1017ft 9kts
18-Oct-19 18:40 33.644674 -84.437883 300 1021ft 8kts
18-Oct-19 18:41 33.646693 -84.438151 41 1026ft 4kts
18-Oct-19 18:42 33.646824 -84.414670 90 1282ft 172kts
18-Oct-19 18:43 33.653877 -84.355913 67 4212ft 212kts
18-Oct-19 18:44 33.689695 -84.284650 27 6835ft 282kts
18-Oct-19 18:45 33.770182 -84.280137 355 10100ft 305kts
18-Oct-19 18:46 33.815352 -84.354753 267 12605ft 336kts
18-Oct-19 18:47 33.814152 -84.471934 268 14293ft 352kts
18-Oct-19 18:48 33.792449 -84.586999 242 16674ft 366kts
18-Oct-19 18:49 33.748674 -84.700523 242 18973ft 383kts
18-Oct-19 18:50 33.704512 -84.818018 242 21208ft 393kts
18-Oct-19 18:51 33.658302 -84.939483 243 23174ft 405kts
18-Oct-19 18:52 33.611243 -85.063700 242 25108ft 410kts
18-Oct-19 18:53 33.563613 -85.188420 243 27036ft 410kts
18-Oct-19 18:54 33.526921 -85.316881 261 28797ft 413kts
18-Oct-19 18:55 33.506836 -85.453161 257 30186ft 416kts
18-Oct-19 18:56 33.481617 -85.590586 256 31238ft 425kts
18-Oct-19 18:57 33.455508 -85.729626 255 32330ft 429kts
18-Oct-19 18:58 33.428884 -85.870560 255 33124ft 438kts
18-Oct-19 18:59 33.401922 -86.012047 255 34465ft 429kts
18-Oct-19 19:00 33.374935 -86.151076 254 35704ft 421kts
18-Oct-19 19:01 33.349236 -86.287703 254 36801ft 414kts
18-Oct-19 19:02 33.322910 -86.422218 253 37438ft 416kts
18-Oct-19 19:03 33.296639 -86.557306 253 37982ft 417kts
18-Oct-19 19:04 33.270254 -86.691967 252 37998ft 415kts
18-Oct-19 19:05 33.243538 -86.827125 252 37998ft 420kts
18-Oct-19 19:06 33.216476 -86.963276 252 38012ft 421kts
18-Oct-19 19:07 33.189223 -87.099582 252 38003ft 419kts
18-Oct-19 19:08 33.161490 -87.237376 252 37996ft 427kts
18-Oct-19 19:09 33.133332 -87.376492 255 37975ft 435kts
18-Oct-19 19:10 33.102208 -87.518263 254 38025ft 444kts
18-Oct-19 19:11 33.066842 -87.660891 254 38028ft 448kts
18-Oct-19 19:12 33.031738 -87.802910 255 37981ft 440kts
18-Oct-19 19:13 32.997088 -87.942426 255 37978ft 437kts
18-Oct-19 19:14 32.962130 -88.082494 255 37986ft 438kts
18-Oct-19 19:16 32.927062 -88.222284 255 37969ft 438kts
18-Oct-19 19:17 32.892322 -88.360035 255 37957ft 430kts
18-Oct-19 19:18 32.857654 -88.496832 255 37960ft 432kts
18-Oct-19 19:19 32.822440 -88.635057 255 37959ft 432kts
18-Oct-19 19:20 32.789900 -88.762170 255 37960ft 433kts
18-Oct-19 19:21 32.754613 -88.899340 254 37967ft 433kts
18-Oct-19 19:22 32.718998 -89.037087 255 37961ft 433kts
18-Oct-19 19:23 32.683298 -89.174488 255 37956ft 433kts
18-Oct-19 19:24 32.647591 -89.311342 255 37967ft 431kts
18-Oct-19 19:25 32.601821 -89.443446 247 37961ft 433kts
18-Oct-19 19:26 32.549441 -89.572217 247 37946ft 432kts
18-Oct-19 19:27 32.497013 -89.700637 247 37947ft 433kts
18-Oct-19 19:28 32.444529 -89.828769 246 37970ft 432kts
18-Oct-19 19:29 32.391602 -89.957519 246 37964ft 431kts
18-Oct-19 19:30 32.339020 -90.084972 246 37941ft 430kts
18-Oct-19 19:31 32.286429 -90.211990 246 37938ft 429kts
18-Oct-19 19:32 32.233461 -90.339457 247 37933ft 430kts
18-Oct-19 19:33 32.180094 -90.467428 247 37947ft 431kts
18-Oct-19 19:33 32.135678 -90.573582 247 37948ft 431kts
18-Oct-19 19:35 32.073356 -90.722015 246 38083ft 432kts
18-Oct-19 19:36 32.020065 -90.848423 247 38058ft 425kts
18-Oct-19 19:36 31.975536 -90.953746 247 38060ft 427kts
18-Oct-19 19:37 31.922110 -91.079687 247 38020ft 428kts
18-Oct-19 19:39 31.858293 -91.224490 245 37918ft 427kts
18-Oct-19 19:40 31.801563 -91.346730 245 37921ft 421kts
18-Oct-19 19:40 31.754617 -91.447616 245 37922ft 422kts
18-Oct-19 19:41 31.698004 -91.568896 246 37904ft 422kts
18-Oct-19 19:42 31.641261 -91.690060 245 37906ft 422kts
18-Oct-19 19:43 31.584259 -91.811366 246 37903ft 419kts
18-Oct-19 19:44 31.527771 -91.931219 246 37891ft 418kts
18-Oct-19 19:45 31.470839 -92.051621 246 37895ft 418kts
18-Oct-19 19:46 31.414183 -92.171057 246 37894ft 418kts
18-Oct-19 19:47 31.357297 -92.290586 246 37895ft 415kts
18-Oct-19 19:48 31.301253 -92.407995 246 37895ft 413kts
18-Oct-19 19:49 31.250169 -92.528125 258 37884ft 407kts
18-Oct-19 19:50 31.219281 -92.655554 257 37886ft 409kts
18-Oct-19 19:51 31.187746 -92.784944 257 37873ft 408kts
18-Oct-19 19:52 31.156721 -92.911646 257 37875ft 406kts
18-Oct-19 19:53 31.125370 -93.039105 257 37875ft 406kts
18-Oct-19 19:54 31.093989 -93.166078 257 37527ft 404kts
18-Oct-19 19:55 31.062882 -93.291340 257 35779ft 399kts
18-Oct-19 19:56 31.031908 -93.415553 256 33325ft 397kts
18-Oct-19 19:57 31.000728 -93.540033 256 30655ft 398kts
18-Oct-19 19:58 30.969585 -93.663805 255 27826ft 401kts
18-Oct-19 19:59 30.937706 -93.789956 254 24754ft 411kts
18-Oct-19 20:00 30.904853 -93.919335 254 22344ft 412kts
18-Oct-19 20:01 30.853794 -94.034267 234 20030ft 410kts
18-Oct-19 20:02 30.783983 -94.137750 233 17614ft 403kts
18-Oct-19 20:03 30.715179 -94.239655 233 15144ft 395kts
18-Oct-19 20:04 30.648486 -94.338206 232 13280ft 369kts
18-Oct-19 20:05 30.589222 -94.425538 232 12582ft 317kts
18-Oct-19 20:06 30.537527 -94.501583 231 12030ft 297kts
18-Oct-19 20:07 30.486536 -94.576478 231 10992ft 293kts
18-Oct-19 20:08 30.436426 -94.649913 230 9946ft 286kts
18-Oct-19 20:09 30.387513 -94.721460 230 8928ft 281kts
18-Oct-19 20:10 30.339127 -94.792102 229 7919ft 276kts
18-Oct-19 20:11 30.291259 -94.861867 229 6924ft 273kts
18-Oct-19 20:12 30.243855 -94.930844 230 5939ft 271kts
18-Oct-19 20:13 30.197173 -94.998650 230 4970ft 268kts
18-Oct-19 20:14 30.151161 -95.065371 230 4231ft 251kts
18-Oct-19 20:15 30.106503 -95.128207 216 3202ft 260kts
18-Oct-19 20:16 30.036431 -95.135097 190 3021ft 235kts
18-Oct-19 20:17 29.994991 -95.182573 261 2537ft 227kts
18-Oct-19 20:18 29.993550 -95.253988 269 1307ft 209kts
18-Oct-19 20:19 29.993458 -95.310953 268 357ft 143kts
18-Oct-19 20:20 29.993389 -95.345763 263 102ft 43kts
18-Oct-19 20:21 29.990584 -95.350796 178 102ft 9kts
18-Oct-19 20:22 29.988826 -95.350135 89 103ft 3kts
18-Oct-19 20:23 29.988828 -95.349945 90 103ft 0kts
18-Oct-19 20:24 29.988828 -95.349945 90 103ft 0kts
18-Oct-19 20:25 29.988828 -95.349945 90 103ft 0kts

Navigation Log

Ident Type
Flight plan parsing failed, navigation log unavailable